Portada
METAR-TAF:

METAR-TAF

Aeroports :

Colombo, Sri Lanka

latitud: 07-10N, longitud: 079-53E, altitud: 8 m

Observació

L'informe es va fer fa 39 minuts, a les 11:10 UTC
Vent 9 kt del Oest/Sud-Oest, variant entre Sud/Sud-Oest i Oest
Temperatura 30°C
Humitat 75%
Pressió 1007 hPa
Visibilitat 10 km o més
Cel ennuvolat a una alçada de 1700 ft

METAR: VCBI 221110Z 24009KT 210V280 9999 BKN017 30/25 Q1007 NOSIG

Hora: 17:19 (11:49 UTC)

Pronòstic

L'informe es va fer fa 49 minuts, a les 11:00 UTC
Pronòstic vàlid del 22 a les 12 UTC al 23 a les 18 UTC
Vent 10 kt del Sud-Oest
Visibilitat 10 km o més
Núvols disperses a una alçada de 1700 ft
Probabilitat 30% :
Temporalment
l' 22 a les 23 UTC al 23 a les 03 UTC
Visibilitat: 7000 m
Escasses núvols a una alçada de 1200 ft
Cel ennuvolat a una alçada de 1600 ft
xàfecs de pluja

TAF: VCBI 221100Z 2212/2318 23010KT 9999 SCT017 TX30/2308Z TN26/2300Z PROB30 TEMPO 2223/2303 7000 -SHRA FEW012 BKN016

Observacions i pronòstics meteorològics de més de 4000 aeroports (METAR i TAF).

Les estacions disponibles són els punts grocs i vermells al mapa.

Posi el ratolí al punt desitjat per veure el nom de l'estació.

Feu clic per veure les observacions i els pronòstics meteorològics.

Per canviar el mapa: feu clic els botons verds amb una creu de color negre per apropar; al botó verd amb un guió per allunyar la imatge; o en les fletxes verdes per a mapes adjacents.


METAR-TAF: